Latest Weather Observations for Outer Harbor (Black Pole)

IDS60901

Issued at 12:01 pm CDT Thursday 21 March 2019 (issued every 10 minutes, with the page automatically refreshed every 10 minutes)

About weather observations | Map of Adelaide area stations | Latest observations for Adelaide area | Other Formats
Station Details ID: 023052 Name: BLACK POLE Lat: -34.73 Lon: 138.47 Height: 6.27 m
Data from the previous 72 hours. | See also: Recent months for locations in South Australia
Date/Time
CDT
Temp
°C
App
Temp
°C
Dew
Point
°C
Rel
Hum
%
Delta-T
°C
Wind Press
QNH
hPa
Press
MSL
hPa
Rain since
9am
mm
Dir  Spd
km/h
Gust
km/h
Spd
kts
Gust
kts
21/12:00pm - - - - - WSW 11 13 6 7 - - -
21/11:30am - - - - - WSW 6 7 3 4 - - -
21/11:00am - - - - - CALM 0 2 0 1 - - -
21/10:30am - - - - - ESE 4 7 2 4 - - -
21/10:00am - - - - - E 6 7 3 4 - - -
21/09:30am - - - - - SSE 2 4 1 2 - - -
21/09:00am - - - - - SE 4 6 2 3 - - -
21/08:30am - - - - - SSE 6 7 3 4 - - -
21/08:00am - - - - - SSE 9 11 5 6 - - -
21/07:30am - - - - - ESE 11 15 6 8 - - -
21/07:00am - - - - - E 11 13 6 7 - - -
21/06:30am - - - - - ESE 11 13 6 7 - - -
21/06:00am - - - - - SE 11 13 6 7 - - -
21/05:30am - - - - - S 17 19 9 10 - - -
21/05:00am - - - - - W 7 19 4 10 - - -
21/04:30am - - - - - WNW 6 7 3 4 - - -
21/04:00am - - - - - N 2 4 1 2 - - -
21/03:30am - - - - - NNE 6 7 3 4 - - -
21/03:00am - - - - - NNE 7 9 4 5 - - -
21/02:30am - - - - - N 9 11 5 6 - - -
21/02:00am - - - - - N 9 11 5 6 - - -
21/01:30am - - - - - SSE 2 2 1 1 - - -
21/01:00am - - - - - SSE 4 6 2 3 - - -
21/12:30am - - - - - SSE 4 7 2 4 - - -
21/12:00am - - - - - S 7 9 4 5 - - -
 
Date/Time
CDT
Temp
°C
App
Temp
°C
Dew
Point
°C
Rel
Hum
%
Delta-T
°C
Wind Press
QNH
hPa
Press
MSL
hPa
Rain since
9am
mm
Dir  Spd
km/h
Gust
km/h
Spd
kts
Gust
kts
20/11:30pm - - - - - SSE 11 13 6 7 - - -
20/11:00pm - - - - - S 19 20 10 11 - - -
20/10:30pm - - - - - S 24 28 13 15 - - -
20/10:00pm - - - - - S 19 22 10 12 - - -
20/09:30pm - - - - - SSE 19 22 10 12 - - -
20/09:00pm - - - - - S 28 32 15 17 - - -
20/08:30pm - - - - - S 22 26 12 14 - - -
20/08:00pm - - - - - SSW 28 33 15 18 - - -
20/07:30pm - - - - - SW 30 35 16 19 - - -
20/07:00pm - - - - - SW 30 35 16 19 - - -
20/06:30pm - - - - - SW 22 28 12 15 - - -
20/06:00pm - - - - - SSW 20 24 11 13 - - -
20/05:30pm - - - - - S 19 22 10 12 - - -
20/05:00pm - - - - - SSW 17 20 9 11 - - -
20/04:30pm - - - - - SSW 19 22 10 12 - - -
20/04:00pm - - - - - SSW 19 22 10 12 - - -
20/03:30pm - - - - - SSW 20 22 11 12 - - -
20/03:00pm - - - - - SSW 20 22 11 12 - - -
20/02:30pm - - - - - SW 19 20 10 11 - - -
20/02:00pm - - - - - SW 19 20 10 11 - - -
20/01:30pm - - - - - WSW 19 20 10 11 - - -
20/01:00pm - - - - - WSW 19 22 10 12 - - -
20/12:30pm - - - - - W 19 22 10 12 - - -
20/12:00pm - - - - - W 20 22 11 12 - - -
20/11:30am - - - - - W 15 17 8 9 - - -
20/11:00am - - - - - NW 6 7 3 4 - - -
20/10:30am - - - - - NNE 6 7 3 4 - - -
20/10:00am - - - - - NNE 9 13 5 7 - - -
20/09:30am - - - - - NNE 13 17 7 9 - - -
20/09:00am - - - - - NNE 17 20 9 11 - - -
20/08:30am - - - - - NNE 17 19 9 10 - - -
20/08:00am - - - - - NNE 15 19 8 10 - - -
20/07:30am - - - - - NNE 17 20 9 11 - - -
20/07:00am - - - - - NNE 17 20 9 11 - - -
20/06:30am - - - - - NE 17 19 9 10 - - -
20/06:00am - - - - - NE 17 19 9 10 - - -
20/05:30am - - - - - NE 15 19 8 10 - - -
20/05:00am - - - - - N 15 17 8 9 - - -
20/04:30am - - - - - NNE 13 15 7 8 - - -
20/04:00am - - - - - NNE 15 17 8 9 - - -
20/03:30am - - - - - NNE 13 17 7 9 - - -
20/03:00am - - - - - NNE 13 15 7 8 - - -
20/02:30am - - - - - NE 11 15 6 8 - - -
20/02:00am - - - - - SW 7 9 4 5 - - -
20/01:30am - - - - - WSW 9 11 5 6 - - -
20/01:00am - - - - - SW 9 11 5 6 - - -
20/12:30am - - - - - SW 9 11 5 6 - - -
20/12:00am - - - - - SW 11 13 6 7 - - -
 
Date/Time
CDT
Temp
°C
App
Temp
°C
Dew
Point
°C
Rel
Hum
%
Delta-T
°C
Wind Press
QNH
hPa
Press
MSL
hPa
Rain since
9am
mm
Dir  Spd
km/h
Gust
km/h
Spd
kts
Gust
kts
19/11:30pm - - - - - SSW 11 15 6 8 - - -
19/11:00pm - - - - - SSW 13 15 7 8 - - -
19/10:30pm - - - - - SSW 17 20 9 11 - - -
19/10:00pm - - - - - SW 19 20 10 11 - - -
19/09:30pm - - - - - SW 19 20 10 11 - - -
19/09:00pm - - - - - SSW 17 20 9 11 - - -
19/08:30pm - - - - - SSW 20 22 11 12 - - -
19/08:00pm - - - - - SW 22 26 12 14 - - -
19/07:30pm - - - - - SSW 22 26 12 14 - - -
19/07:00pm - - - - - SSW 26 30 14 16 - - -
19/06:30pm - - - - - SSW 28 32 15 17 - - -
19/06:00pm - - - - - SSW 26 30 14 16 - - -
19/05:30pm - - - - - SSW 28 32 15 17 - - -
19/05:00pm - - - - - SSW 28 32 15 17 - - -
19/04:30pm - - - - - SSW 28 32 15 17 - - -
19/04:00pm - - - - - SSW 24 28 13 15 - - -
19/03:30pm - - - - - SSW 24 28 13 15 - - -
19/03:00pm - - - - - SSW 26 30 14 16 - - -
19/02:30pm - - - - - SW 26 30 14 16 - - -
19/02:00pm - - - - - SW 24 28 13 15 - - -
19/01:30pm - - - - - SW 24 26 13 14 - - -
19/01:00pm - - - - - SW 20 22 11 12 - - -
19/12:30pm - - - - - WSW 15 17 8 9 - - -
19/12:00pm - - - - - WSW 13 15 7 8 - - -
19/11:30am - - - - - WSW 11 13 6 7 - - -
19/11:00am - - - - - W 6 7 3 4 - - -
19/10:30am - - - - - N 6 6 3 3 - - -
19/10:00am - - - - - NNE 7 9 4 5 - - -
19/09:30am - - - - - NNE 9 11 5 6 - - -
19/09:00am - - - - - NNE 9 11 5 6 - - -
19/08:30am - - - - - NNE 11 13 6 7 - - -
19/08:00am - - - - - NNE 13 15 7 8 - - -
19/07:30am - - - - - N 13 13 7 7 - - -
19/07:00am - - - - - NNE 13 15 7 8 - - -
19/06:30am - - - - - N 11 13 6 7 - - -
19/06:00am - - - - - NNE 9 11 5 6 - - -
19/05:30am - - - - - NE 9 11 5 6 - - -
19/05:00am - - - - - ENE 7 9 4 5 - - -
19/04:30am - - - - - SE 6 6 3 3 - - -
19/04:00am - - - - - S 11 15 6 8 - - -
19/03:30am - - - - - S 13 15 7 8 - - -
19/03:00am - - - - - SSW 17 19 9 10 - - -
19/02:30am - - - - - SSW 19 20 10 11 - - -
19/02:00am - - - - - SSW 19 20 10 11 - - -
19/01:30am - - - - - SSW 20 24 11 13 - - -
19/01:00am - - - - - SSW 22 26 12 14 - - -
19/12:30am - - - - - SSW 24 28 13 15 - - -
19/12:00am - - - - - SSW 20 26 11 14 - - -
 
Date/Time
CDT
Temp
°C
App
Temp
°C
Dew
Point
°C
Rel
Hum
%
Delta-T
°C
Wind Press
QNH
hPa
Press
MSL
hPa
Rain since
9am
mm
Dir  Spd
km/h
Gust
km/h
Spd
kts
Gust
kts
18/11:30pm - - - - - SSW 17 19 9 10 - - -
18/11:00pm - - - - - SSW 19 20 10 11 - - -
18/10:30pm - - - - - S 11 15 6 8 - - -
18/10:00pm - - - - - S 9 13 5 7 - - -
18/09:30pm - - - - - S 11 13 6 7 - - -
18/09:00pm - - - - - S 13 13 7 7 - - -
18/08:30pm - - - - - SSW 17 20 9 11 - - -
18/08:00pm - - - - - SSW 19 22 10 12 - - -
18/07:30pm - - - - - SSW 24 28 13 15 - - -
18/07:00pm - - - - - SSW 22 24 12 13 - - -
18/06:30pm - - - - - SSW 20 24 11 13 - - -
18/06:00pm - - - - - SSW 22 26 12 14 - - -
18/05:30pm - - - - - S 24 28 13 15 - - -
18/05:00pm - - - - - S 24 26 13 14 - - -
18/04:30pm - - - - - S 22 28 12 15 - - -
18/04:00pm - - - - - SSW 24 28 13 15 - - -
18/03:30pm - - - - - SSW 26 30 14 16 - - -
18/03:00pm - - - - - SSW 26 30 14 16 - - -
18/02:30pm - - - - - SSW 26 28 14 15 - - -
18/02:00pm - - - - - SSW 26 28 14 15 - - -
18/01:30pm - - - - - SSW 24 26 13 14 - - -
18/01:00pm - - - - - SSW 20 24 11 13 - - -
18/12:30pm - - - - - SSW 17 19 9 10 - - -

Latest Capital City Observations: Canberra | Sydney | Melbourne | Brisbane | Adelaide | Perth | Hobart | Darwin

Other formats

Comma delimited format used in spreadsheet applications
http://www.bom.gov.au/fwo/IDS60901/IDS60901.95675.axf

JavaScript Object Notation format (JSON) in row-major order
http://www.bom.gov.au/fwo/IDS60901/IDS60901.95675.json

Data quality

Most of these data are generated automatically and are frequently updated. Quality checks on data are not normally performed. It is possible for incorrect values to appear. Refer to information at About Latest Weather Observations and please check the disclaimer before using these data.